Portada
METAR-TAF:

METAR-TAF

Aeroports :

Salem-Leckrone Airport

Salem, Illinois, Estats Units d'Amèrica

latitud: 38-38-34N, longitud: 088-57-51W, altitud: 175 m

Observació

L'informe es va fer fa 12 minuts, a les 12:55 UTC
Vent 7 kt del Nord
Temperatura 17°C
Humitat 68%
Pressió 1023 hPa
Visibilitat: 16.1 km
Cel clar

METAR: KSLO 301255Z AUTO 36007KT 10SM CLR 17/11 A3021 RMK AO2 T01650112

Hora: 08:07 (13:07 UTC)


TAF: manca

Observacions i pronòstics meteorològics de més de 4000 aeroports (METAR i TAF).

Les estacions disponibles són els punts grocs i vermells al mapa.

Posi el ratolí al punt desitjat per veure el nom de l'estació.

Feu clic per veure les observacions i els pronòstics meteorològics.

Per canviar el mapa: feu clic els botons verds amb una creu de color negre per apropar; al botó verd amb un guió per allunyar la imatge; o en les fletxes verdes per a mapes adjacents.


METAR-TAF: